Time;durP1;ratioP1;P1;durP2;ratioP2;P2;SDS_P1;SDS_P2;PMS_P1;PMS_P2;Temp;Humidity;BMP_temperature;BMP_pressure;BME280_temperature;BME280_humidity;BME280_pressure;Samples;Min_cycle;Max_cycle;Signal;HPM_P1;HPM_P2
2023/03/20 00:00:31;;;;;;;1.88;1.73;;;;;;;9.07;100.00;99922.72;6095963;23;20356;-89
2023/03/20 00:02:56;;;;;;;3.00;1.80;;;;;;;8.95;100.00;99904.00;6120869;23;20037;-88
2023/03/20 00:05:23;;;;;;;1.88;1.77;;;;;;;8.96;100.00;99910.31;6120939;23;20490;-88
2023/03/20 00:07:49;;;;;;;2.83;1.85;;;;;;;8.60;100.00;99871.59;6095755;23;20021;-89
2023/03/20 00:10:18;;;;;;;0.55;0.55;;;;;;;8.84;100.00;99920.06;6120316;23;20006;-88
2023/03/20 00:12:45;;;;;;;1.35;1.00;;;;;;;8.71;100.00;99895.06;6119423;23;20341;-89
2023/03/20 00:15:30;;;;;;;1.45;1.27;;;;;;;8.82;100.00;99909.41;6120919;23;20037;-88
2023/03/20 00:17:56;;;;;;;1.98;1.88;;;;;;;8.76;100.00;99891.78;6119820;23;20028;-89
2023/03/20 00:20:21;;;;;;;1.33;1.27;;;;;;;8.91;100.00;99925.44;6120643;23;20018;-88
2023/03/20 00:22:48;;;;;;;2.38;1.30;;;;;;;8.68;100.00;99900.66;6119811;23;20432;-88
2023/03/20 00:25:20;;;;;;;1.27;1.15;;;;;;;8.73;100.00;99912.00;6120680;23;20025;-89
2023/03/20 00:27:46;;;;;;;1.65;1.52;;;;;;;8.74;100.00;99916.31;6095899;23;20042;-89
2023/03/20 00:30:21;;;;;;;0.98;0.95;;;;;;;8.74;100.00;99910.78;6096722;23;20325;-88
2023/03/20 00:32:48;;;;;;;1.42;1.33;;;;;;;8.72;100.00;99913.22;6118538;23;20018;-88
2023/03/20 00:35:29;;;;;;;0.47;0.40;;;;;;;8.77;100.00;99909.94;6095936;23;20013;-89
2023/03/20 00:37:56;;;;;;;1.42;1.30;;;;;;;8.78;100.00;99910.69;6119284;23;20014;-89
2023/03/20 00:40:30;;;;;;;2.08;1.85;;;;;;;8.77;100.00;99912.72;6095524;23;20025;-88
2023/03/20 00:43:00;;;;;;;1.42;1.35;;;;;;;8.71;100.00;99905.34;6119075;23;20017;-89
2023/03/20 00:45:29;;;;;;;0.40;0.40;;;;;;;8.76;100.00;99924.19;6120136;23;20384;-89
2023/03/20 00:47:56;;;;;;;1.40;1.30;;;;;;;8.65;100.00;99907.06;6094757;23;20599;-88
2023/03/20 00:50:24;;;;;;;2.13;1.95;;;;;;;8.77;100.00;99915.47;6093519;23;20025;-89
2023/03/20 00:52:51;;;;;;;0.57;0.57;;;;;;;8.63;100.00;99913.00;6069578;23;20018;-89
2023/03/20 00:55:18;;;;;;;2.25;2.15;;;;;;;8.37;100.00;99884.28;6118960;23;20392;-88
2023/03/20 00:57:44;;;;;;;1.48;1.38;;;;;;;8.49;100.00;99912.53;6119700;23;20022;-88
2023/03/20 01:00:23;;;;;;;1.63;1.25;;;;;;;8.29;100.00;99912.53;6120942;23;20089;-89
2023/03/20 01:02:51;;;;;;;0.30;0.30;;;;;;;8.26;100.00;99916.09;6094063;23;20018;-88
2023/03/20 01:05:17;;;;;;;2.72;1.55;;;;;;;8.16;100.00;99909.56;6096232;23;20463;-88
2023/03/20 01:07:44;;;;;;;0.90;0.90;;;;;;;8.12;100.00;99919.91;6119572;23;20024;-89
2023/03/20 01:10:11;;;;;;;1.55;1.45;;;;;;;8.04;100.00;99907.44;6119825;23;20508;-89
2023/03/20 01:12:39;;;;;;;0.93;0.93;;;;;;;8.10;100.00;99916.00;6119557;23;20005;-89
2023/03/20 01:15:16;;;;;;;1.40;1.30;;;;;;;7.81;100.00;99877.84;6120288;23;20340;-88
2023/03/20 01:17:42;;;;;;;0.80;0.80;;;;;;;7.77;100.00;99881.88;6119475;23;20057;-88
2023/03/20 01:20:19;;;;;;;0.65;0.65;;;;;;;7.91;100.00;99898.19;6095812;23;20025;-89
2023/03/20 01:22:45;;;;;;;1.13;1.10;;;;;;;7.95;100.00;99905.22;6095619;23;20101;-89
2023/03/20 01:25:11;;;;;;;0.95;0.95;;;;;;;7.95;100.00;99899.69;6072648;23;20037;-89
2023/03/20 01:27:37;;;;;;;1.05;1.05;;;;;;;7.72;100.00;99877.63;6121576;23;20002;-89
2023/03/20 01:30:05;;;;;;;1.65;1.55;;;;;;;7.63;100.00;99880.16;6120423;23;20507;-89
2023/03/20 01:32:31;;;;;;;2.72;2.15;;;;;;;7.44;100.00;99847.78;6095005;23;20005;-89
2023/03/20 01:34:57;;;;;;;1.35;1.02;;;;;;;7.48;100.00;99865.78;6097621;23;20014;-89
2023/03/20 01:37:26;;;;;;;2.20;0.80;;;;;;;7.59;100.00;99895.22;6096562;23;20021;-89
2023/03/20 01:39:54;;;;;;;1.48;1.23;;;;;;;7.64;100.00;99905.78;6122204;23;20036;-88
2023/03/20 01:42:20;;;;;;;2.92;1.40;;;;;;;7.65;100.00;99918.38;6120099;23;20081;-89
2023/03/20 01:44:47;;;;;;;2.90;2.67;;;;;;;7.53;100.00;99899.63;6120414;23;20010;-90
2023/03/20 01:47:16;;;;;;;0.90;0.77;;;;;;;7.58;100.00;99918.50;6118316;23;20100;-89
2023/03/20 01:50:23;;;;;;;1.40;1.30;;;;;;;7.50;100.00;99913.09;6119809;23;20009;-89
2023/03/20 01:53:01;;;;;;;2.28;0.75;;;;;;;7.15;100.00;99885.28;6121576;23;20448;-88
2023/03/20 01:55:27;;;;;;;0.80;0.80;;;;;;;7.21;100.00;99900.94;6120169;23;20074;-89
2023/03/20 01:58:01;;;;;;;0.80;0.52;;;;;;;7.22;100.00;99905.25;6097436;23;20012;-88
2023/03/20 02:00:27;;;;;;;1.73;1.63;;;;;;;7.01;100.00;99897.28;6096568;23;20531;-89
2023/03/20 02:02:54;;;;;;;0.75;0.75;;;;;;;6.97;100.00;99907.59;6120092;23;20049;-89
2023/03/20 02:05:43;;;;;;;0.15;0.10;;;;;;;6.79;100.00;99907.06;6121160;23;20025;-90
2023/03/20 02:08:23;;;;;;;1.38;1.27;;;;;;;6.77;100.00;99912.22;6121304;23;20076;-92
2023/03/20 02:10:49;;;;;;;0.65;0.65;;;;;;;6.67;100.00;99911.16;6096876;23;20073;-93
2023/03/20 02:13:26;;;;;;;0.45;0.45;;;;;;;6.27;100.00;99854.22;6100452;23;20416;-92
2023/03/20 02:16:10;;;;;;;0.73;0.73;;;;;;;6.61;100.00;99912.03;6096724;23;20029;-93
2023/03/20 02:18:55;;;;;;;2.53;2.30;;;;;;;6.54;100.00;99913.69;6122144;23;20093;-93
2023/03/20 02:21:50;;;;;;;1.23;1.13;;;;;;;6.64;100.00;99916.69;6122117;23;20081;-92
2023/03/20 02:24:25;;;;;;;1.02;0.80;;;;;;;6.55;100.00;99915.22;6122766;23;20028;-95
2023/03/20 02:27:13;;;;;;;0.95;0.95;;;;;;;6.61;100.00;99918.31;6119748;23;20034;-95
2023/03/20 02:30:12;;;;;;;0.93;0.50;;;;;;;6.48;100.00;99912.56;6121702;23;20073;-95
2023/03/20 02:32:45;;;;;;;0.68;0.68;;;;;;;6.42;100.00;99908.72;6121358;23;20014;-94
2023/03/20 02:35:19;;;;;;;1.67;1.25;;;;;;;6.34;100.00;99915.50;6121584;23;20046;-90
2023/03/20 02:37:58;;;;;;;1.50;1.40;;;;;;;6.27;100.00;99909.31;6121393;23;20022;-91
2023/03/20 02:40:46;;;;;;;1.83;1.50;;;;;;;6.26;100.00;99919.53;6148620;23;20013;-90
2023/03/20 02:43:28;;;;;;;2.05;1.52;;;;;;;6.09;100.00;99907.53;6094736;23;20033;-90
2023/03/20 02:45:56;;;;;;;1.52;1.45;;;;;;;6.05;100.00;99922.50;6118393;23;20104;-90
2023/03/20 02:48:35;;;;;;;2.13;2.00;;;;;;;6.00;100.00;99917.44;6117722;23;20144;-90
2023/03/20 02:51:14;;;;;;;0.20;0.20;;;;;;;5.86;100.00;99909.31;6119362;23;20037;-90
2023/03/20 02:53:52;;;;;;;1.73;1.63;;;;;;;5.88;100.00;99926.22;6097428;23;20025;-95
2023/03/20 02:56:40;;;;;;;1.67;1.50;;;;;;;5.70;100.00;99909.06;6119091;23;20026;-94
2023/03/20 02:59:09;;;;;;;2.85;1.70;;;;;;;5.84;100.00;99931.72;6122033;23;20045;-95
2023/03/20 03:01:42;;;;;;;1.25;0.73;;;;;;;5.58;100.00;99891.84;6121908;23;20104;-95
2023/03/20 03:04:11;;;;;;;0.77;0.77;;;;;;;5.70;100.00;99903.56;6121389;23;20026;-94
2023/03/20 03:06:39;;;;;;;2.25;2.03;;;;;;;5.40;100.00;99893.19;6096263;23;20089;-94
2023/03/20 03:09:19;;;;;;;1.20;1.13;;;;;;;5.26;100.00;99869.31;6099398;23;20444;-94
2023/03/20 03:11:49;;;;;;;2.08;1.70;;;;;;;5.66;100.00;99931.13;6095940;23;20017;-94
2023/03/20 03:14:28;;;;;;;1.75;0.88;;;;;;;5.63;100.00;99932.69;6120705;23;20024;-96
2023/03/20 03:16:55;;;;;;;2.00;0.93;;;;;;;5.65;100.00;99929.53;6120563;23;20142;-94
2023/03/20 03:19:25;;;;;;;0.80;0.80;;;;;;;5.54;100.00;99940.63;6095497;23;20030;-94
2023/03/20 03:21:51;;;;;;;0.75;0.75;;;;;;;5.31;100.00;99888.16;6096306;23;20022;-93
2023/03/20 03:24:21;;;;;;;1.13;1.02;;;;;;;5.53;100.00;99914.31;6096864;23;20010;-94
2023/03/20 03:26:47;;;;;;;0.38;0.38;;;;;;;5.24;100.00;99874.47;6120362;23;20024;-94
2023/03/20 03:29:15;;;;;;;0.93;0.93;;;;;;;5.44;100.00;99891.97;6096216;23;20018;-93
2023/03/20 03:31:43;;;;;;;0.90;0.85;;;;;;;5.52;100.00;99899.00;6120986;23;20365;-94
2023/03/20 03:34:13;;;;;;;1.55;1.05;;;;;;;5.36;100.00;99887.72;6120784;23;20044;-95
2023/03/20 03:37:16;;;;;;;0.85;0.85;;;;;;;5.69;100.00;99935.00;6095199;23;20149;-95
2023/03/20 03:39:51;;;;;;;1.20;1.13;;;;;;;5.59;100.00;99936.66;6120506;23;20028;-94
2023/03/20 03:42:27;;;;;;;0.30;0.30;;;;;;;5.42;100.00;99905.34;6095136;23;20454;-93
2023/03/20 03:44:59;;;;;;;0.50;0.50;;;;;;;5.34;100.00;99892.84;6119128;23;20491;-93
2023/03/20 03:47:31;;;;;;;1.38;1.17;;;;;;;5.55;100.00;99903.66;6098749;23;20113;-93
2023/03/20 03:50:01;;;;;;;0.43;0.43;;;;;;;5.93;100.00;99939.53;6119548;23;20013;-94
2023/03/20 03:52:30;;;;;;;0.50;0.50;;;;;;;5.73;100.00;99894.47;6120732;23;20331;-93
2023/03/20 03:55:07;;;;;;;3.65;2.50;;;;;;;5.98;100.00;99915.13;6121770;23;20487;-96
2023/03/20 03:57:40;;;;;;;0.95;0.95;;;;;;;6.18;100.00;99945.59;6120525;23;20030;-93
2023/03/20 04:00:10;;;;;;;1.70;1.60;;;;;;;6.01;100.00;99913.50;6120645;23;20036;-89
2023/03/20 04:02:41;;;;;;;0.55;0.55;;;;;;;5.98;100.00;99908.81;6119474;23;20030;-90
2023/03/20 04:05:08;;;;;;;1.17;1.08;;;;;;;6.13;100.00;99936.97;6092225;23;20022;-89
2023/03/20 04:07:34;;;;;;;3.05;2.03;;;;;;;5.89;100.00;99917.56;6119247;23;20005;-89
2023/03/20 04:10:00;;;;;;;1.70;1.33;;;;;;;6.06;100.00;99948.88;6095826;23;20113;-90
2023/03/20 04:12:38;;;;;;;2.53;2.10;;;;;;;6.13;100.00;99953.50;6116870;23;20010;-89
2023/03/20 04:15:08;;;;;;;1.05;1.00;;;;;;;5.91;100.00;99919.88;6095094;23;20014;-90
2023/03/20 04:17:34;;;;;;;1.10;1.02;;;;;;;5.86;100.00;99914.81;6117373;23;20081;-90
2023/03/20 04:20:00;;;;;;;1.92;1.27;;;;;;;5.87;100.00;99921.88;6093290;23;20022;-90
2023/03/20 04:22:26;;;;;;;1.98;1.88;;;;;;;6.19;100.00;99963.66;6094711;23;20292;-90
2023/03/20 04:24:52;;;;;;;1.23;1.13;;;;;;;5.97;100.00;99932.81;6092850;23;20092;-91
2023/03/20 04:27:18;;;;;;;3.80;2.28;;;;;;;5.98;100.00;99925.34;6093181;23;20022;-89
2023/03/20 04:29:44;;;;;;;1.85;1.70;;;;;;;6.16;100.00;99958.97;6119340;23;20014;-88
2023/03/20 04:32:25;;;;;;;0.50;0.50;;;;;;;6.06;100.00;99970.88;6096789;23;20013;-90
2023/03/20 04:35:13;;;;;;;1.70;1.60;;;;;;;6.00;100.00;99984.31;6119420;23;20061;-89
2023/03/20 04:37:48;;;;;;;0.93;0.93;;;;;;;5.72;100.00;99934.19;6095137;23;20050;-89
2023/03/20 04:40:15;;;;;;;2.30;2.13;;;;;;;5.98;100.00;99980.41;6095425;23;20014;-89
2023/03/20 04:42:42;;;;;;;0.93;0.88;;;;;;;5.95;100.00;99981.19;6095487;23;20109;-90
2023/03/20 04:45:08;;;;;;;1.25;1.20;;;;;;;5.77;100.00;99966.78;6092154;23;20061;-89
2023/03/20 04:47:36;;;;;;;1.88;1.77;;;;;;;5.73;100.00;99964.06;6095540;23;20053;-90
2023/03/20 04:50:03;;;;;;;2.08;1.88;;;;;;;5.75;100.00;99967.19;6094252;23;20022;-90
2023/03/20 04:52:29;;;;;;;2.10;1.90;;;;;;;5.83;100.00;99995.44;6092704;23;20010;-90
2023/03/20 04:54:55;;;;;;;0.73;0.73;;;;;;;5.83;100.00;99998.97;6094466;23;20376;-90
2023/03/20 04:57:21;;;;;;;3.65;3.35;;;;;;;5.82;100.00;99994.69;6096187;23;20060;-89
2023/03/20 04:59:46;;;;;;;2.15;2.05;;;;;;;5.54;100.00;99959.88;6119319;23;20018;-89
2023/03/20 05:02:13;;;;;;;0.98;0.55;;;;;;;5.83;100.00;100011.94;6120639;23;20455;-89
2023/03/20 05:04:41;;;;;;;1.30;1.20;;;;;;;5.49;100.00;99959.53;6102019;23;20022;-89
2023/03/20 05:07:07;;;;;;;1.35;1.25;;;;;;;5.75;100.00;100015.94;6100858;23;20016;-89
2023/03/20 05:09:50;;;;;;;1.85;1.73;;;;;;;5.34;100.00;99958.84;6104362;23;20028;-89
2023/03/20 05:12:16;;;;;;;1.38;1.30;;;;;;;5.43;100.00;99978.44;6119835;23;20053;-90
2023/03/20 05:15:05;;;;;;;1.83;1.73;;;;;;;5.56;100.00;99998.78;6073332;23;20026;-90
2023/03/20 05:17:54;;;;;;;1.65;1.55;;;;;;;5.72;100.00;100022.25;6094951;23;20452;-90
2023/03/20 05:20:43;;;;;;;1.95;1.85;;;;;;;5.69;100.00;100012.84;6100463;23;20419;-90
2023/03/20 05:23:21;;;;;;;1.40;1.23;;;;;;;5.62;100.00;100002.66;6097659;23;20074;-89
2023/03/20 05:26:17;;;;;;;0.95;0.95;;;;;;;5.77;100.00;100014.38;6121802;23;20022;-90
2023/03/20 05:29:12;;;;;;;2.03;1.77;;;;;;;6.07;100.00;100049.53;6092384;23;20029;-89
2023/03/20 05:31:56;;;;;;;2.40;1.20;;;;;;;6.12;100.00;100024.31;6100899;23;20545;-90
2023/03/20 05:34:31;;;;;;;3.47;2.53;;;;;;;6.24;100.00;100040.34;6121747;23;20017;-89
2023/03/20 05:37:07;;;;;;;3.63;1.75;;;;;;;6.30;100.00;100040.69;6099650;23;20010;-90
2023/03/20 05:39:54;;;;;;;1.52;0.98;;;;;;;6.31;100.00;100032.00;6101093;23;20022;-89
2023/03/20 05:42:46;;;;;;;1.45;1.27;;;;;;;6.29;100.00;100009.59;6067744;23;20337;-89
2023/03/20 05:45:28;;;;;;;2.03;1.92;;;;;;;6.38;100.00;100009.13;6099196;23;20020;-89
2023/03/20 05:48:16;;;;;;;4.05;2.72;;;;;;;6.42;100.00;100010.66;6098368;23;20459;-90
2023/03/20 05:51:14;;;;;;;0.90;0.90;;;;;;;6.68;100.00;100006.44;6086371;23;20049;-89
2023/03/20 05:54:09;;;;;;;1.83;1.55;;;;;;;6.82;100.00;100005.50;6080380;23;20021;-89
2023/03/20 05:56:40;;;;;;;0.85;0.85;;;;;;;6.85;100.00;100010.19;6096667;23;20030;-90
2023/03/20 05:59:31;;;;;;;1.95;1.75;;;;;;;6.92;100.00;100021.91;6112740;23;20379;-90
2023/03/20 06:02:32;;;;;;;1.23;1.17;;;;;;;6.84;100.00;100003.88;6120132;23;20456;-90
2023/03/20 06:05:07;;;;;;;1.80;1.38;;;;;;;6.87;100.00;100016.84;6118466;23;20014;-91
2023/03/20 06:07:41;;;;;;;1.17;1.08;;;;;;;6.84;100.00;100011.34;6096163;23;20018;-90
2023/03/20 06:10:11;;;;;;;1.35;1.25;;;;;;;6.80;100.00;99997.63;6095104;23;20100;-89
2023/03/20 06:12:37;;;;;;;1.25;1.23;;;;;;;7.04;100.00;100035.13;6117423;23;20606;-90
2023/03/20 06:15:04;;;;;;;1.00;1.00;;;;;;;7.13;100.00;100048.44;6119779;23;20018;-90
2023/03/20 06:17:35;;;;;;;2.67;1.67;;;;;;;7.24;100.00;100049.06;6095524;23;20032;-89
2023/03/20 06:20:02;;;;;;;3.95;3.20;;;;;;;7.17;100.00;100020.78;6119628;23;20080;-90
2023/03/20 06:22:29;;;;;;;1.00;1.00;;;;;;;7.20;100.00;100008.97;6092115;23;20020;-89
2023/03/20 06:24:56;;;;;;;1.10;0.70;;;;;;;7.47;100.00;100046.41;6118407;23;20022;-89
2023/03/20 06:27:26;;;;;;;2.70;2.47;;;;;;;7.54;100.00;100041.97;6120751;23;20448;-89
2023/03/20 06:29:52;;;;;;;1.38;1.27;;;;;;;7.45;100.00;100009.38;6117754;23;20024;-89
2023/03/20 06:32:26;;;;;;;1.15;1.05;;;;;;;7.70;100.00;100036.59;6118913;23;20010;-90
2023/03/20 06:34:55;;;;;;;2.75;1.83;;;;;;;7.73;100.00;100024.72;6117836;23;20085;-89
2023/03/20 06:37:21;;;;;;;0.52;0.52;;;;;;;7.99;100.00;100034.97;6121673;23;20010;-90
2023/03/20 06:39:47;;;;;;;1.95;1.75;;;;;;;8.01;100.00;100021.50;6143946;23;20022;-90
2023/03/20 06:42:13;;;;;;;1.25;1.23;;;;;;;8.18;100.00;100016.88;6120559;23;20021;-91
2023/03/20 06:44:40;;;;;;;1.63;1.52;;;;;;;8.51;100.00;100051.09;6096390;23;20360;-90
2023/03/20 06:47:12;;;;;;;2.90;2.45;;;;;;;8.76;100.00;100060.50;6097317;23;20018;-90
2023/03/20 06:49:38;;;;;;;1.95;1.25;;;;;;;8.68;99.05;100025.88;6095240;23;20498;-90
2023/03/20 06:52:05;;;;;;;3.42;1.95;;;;;;;8.75;97.72;100033.25;6095297;23;20022;-90
2023/03/20 06:54:32;;;;;;;1.80;1.35;;;;;;;9.13;98.95;100064.91;6095233;23;20507;-90
2023/03/20 06:56:58;;;;;;;2.30;1.17;;;;;;;9.34;99.29;100050.59;6120186;23;20022;-91
2023/03/20 06:59:24;;;;;;;1.52;1.42;;;;;;;9.26;97.97;100040.88;6121051;23;20018;-90
2023/03/20 07:01:54;;;;;;;2.05;1.83;;;;;;;9.41;93.71;100043.38;6095892;23;20487;-89
2023/03/20 07:04:21;;;;;;;2.15;1.15;;;;;;;9.38;92.85;100025.63;6096253;23;20029;-90
2023/03/20 07:06:52;;;;;;;1.23;1.15;;;;;;;9.56;91.93;100062.00;6120379;23;20093;-90
2023/03/20 07:09:18;;;;;;;5.53;2.33;;;;;;;9.34;90.86;100045.06;6120831;23;20060;-90
2023/03/20 07:11:44;;;;;;;3.58;3.28;;;;;;;9.56;89.49;100081.38;6119814;23;20013;-89
2023/03/20 07:14:11;;;;;;;4.82;2.10;;;;;;;9.51;90.29;100061.72;6120743;23;20020;-91
2023/03/20 07:17:07;;;;;;;3.45;1.70;;;;;;;9.33;89.88;100045.50;6102277;23;20340;-90
2023/03/20 07:19:35;;;;;;;2.85;2.03;;;;;;;9.41;90.87;100040.59;6119492;23;20341;-90
2023/03/20 07:22:03;;;;;;;3.03;2.80;;;;;;;9.76;86.84;100078.56;6120339;23;20018;-90
2023/03/20 07:24:36;;;;;;;2.92;2.65;;;;;;;9.63;86.54;100050.75;6145245;23;20020;-90
2023/03/20 07:27:02;;;;;;;1.75;1.50;;;;;;;10.02;85.55;100080.34;6120156;23;20077;-90
2023/03/20 07:29:29;;;;;;;3.50;2.35;;;;;;;9.96;83.00;100062.66;6120145;23;20014;-91
2023/03/20 07:31:56;;;;;;;0.90;0.90;;;;;;;9.93;81.47;100048.88;6095797;23;20068;-90
2023/03/20 07:34:27;;;;;;;1.45;1.40;;;;;;;10.29;81.80;100083.66;6120394;23;20032;-90
2023/03/20 07:36:54;;;;;;;2.22;2.03;;;;;;;9.99;79.84;100053.47;6096886;23;20022;-92
2023/03/20 07:39:21;;;;;;;0.85;0.85;;;;;;;10.11;77.50;100079.75;6096452;23;20061;-92
2023/03/20 07:41:59;;;;;;;1.33;1.15;;;;;;;10.02;78.35;100072.03;6120344;23;20097;-93
2023/03/20 07:44:40;;;;;;;2.17;1.73;;;;;;;10.37;78.05;100095.34;6099424;23;20519;-92
2023/03/20 07:47:10;;;;;;;2.88;2.65;;;;;;;10.23;75.50;100065.97;6120441;23;20499;-93
2023/03/20 07:49:35;;;;;;;1.45;1.17;;;;;;;10.53;74.44;100105.66;6120864;23;20093;-91
2023/03/20 07:52:01;;;;;;;1.45;1.35;;;;;;;10.13;74.10;100069.00;6120304;23;20474;-94
2023/03/20 07:54:28;;;;;;;3.95;1.58;;;;;;;10.37;74.86;100106.44;6120359;23;20025;-93
2023/03/20 07:56:56;;;;;;;1.95;1.73;;;;;;;10.32;72.29;100086.75;6095861;23;20034;-92
2023/03/20 07:59:22;;;;;;;0.68;0.68;;;;;;;10.33;73.55;100107.75;6120780;23;20415;-93
2023/03/20 08:01:48;;;;;;;3.17;2.88;;;;;;;10.52;75.02;100126.28;6095765;23;20100;-91
2023/03/20 08:04:18;;;;;;;0.93;0.88;;;;;;;10.17;74.83;100083.56;6120222;23;20451;-92
2023/03/20 08:06:44;;;;;;;2.85;1.65;;;;;;;10.37;75.17;100100.09;6118089;23;20013;-92
2023/03/20 08:09:10;;;;;;;1.80;1.70;;;;;;;10.65;75.02;100121.59;6095692;23;20009;-93
2023/03/20 08:11:35;;;;;;;2.03;1.83;;;;;;;10.66;75.21;100112.06;6121957;23;20013;-93
2023/03/20 08:14:01;;;;;;;3.13;2.47;;;;;;;10.82;73.99;100131.44;6096027;23;20388;-91
2023/03/20 08:16:27;;;;;;;1.67;1.40;;;;;;;10.74;73.49;100121.75;6120495;23;20510;-92
2023/03/20 08:18:55;;;;;;;5.55;2.50;;;;;;;10.55;73.07;100089.38;6119583;23;20392;-92
2023/03/20 08:21:21;;;;;;;8.77;2.35;;;;;;;10.73;73.93;100100.75;6120970;23;20021;-91
2023/03/20 08:23:46;;;;;;;2.17;1.27;;;;;;;10.78;72.64;100136.31;6120400;23;20054;-92
2023/03/20 08:26:12;;;;;;;2.58;2.35;;;;;;;10.68;73.29;100129.81;6096226;23;20313;-93
2023/03/20 08:28:37;;;;;;;2.45;1.90;;;;;;;10.59;73.75;100112.25;6096100;23;20014;-92
2023/03/20 08:31:07;;;;;;;13.00;4.28;;;;;;;10.66;75.04;100112.84;6118841;23;20018;-91
2023/03/20 08:33:33;;;;;;;2.22;2.03;;;;;;;10.73;73.40;100132.06;6121565;23;20038;-92
2023/03/20 08:35:59;;;;;;;1.45;1.17;;;;;;;10.86;75.42;100143.22;6120194;23;20062;-91
2023/03/20 08:38:24;;;;;;;3.40;2.67;;;;;;;10.80;72.81;100122.00;6120731;23;20444;-91
2023/03/20 08:40:50;;;;;;;2.92;2.72;;;;;;;10.74;72.52;100107.88;6120013;23;20041;-90
2023/03/20 08:43:16;;;;;;;1.65;1.40;;;;;;;11.04;72.23;100143.53;6120106;23;20093;-92
2023/03/20 08:45:42;;;;;;;3.03;2.63;;;;;;;11.16;72.35;100145.56;6120230;23;20006;-92
2023/03/20 08:48:08;;;;;;;2.30;2.10;;;;;;;11.17;70.67;100144.38;6119760;23;20025;-92
2023/03/20 08:50:34;;;;;;;2.67;2.45;;;;;;;11.23;70.74;100137.06;6095068;23;20033;-92
2023/03/20 08:53:00;;;;;;;2.17;1.73;;;;;;;11.31;70.40;100120.22;6093735;23;20033;-92
2023/03/20 08:55:25;;;;;;;3.58;2.45;;;;;;;11.59;70.58;100144.38;6095800;23;20017;-92
2023/03/20 08:57:53;;;;;;;2.95;1.90;;;;;;;11.65;68.24;100142.63;6119545;23;20566;-92
2023/03/20 09:00:19;;;;;;;3.13;2.55;;;;;;;11.71;68.42;100124.19;6120304;23;20017;-92
2023/03/20 09:02:45;;;;;;;2.28;1.75;;;;;;;11.84;68.56;100113.13;6120091;23;20077;-93
2023/03/20 09:05:11;;;;;;;2.55;1.90;;;;;;;12.03;66.58;100112.91;6071578;23;20349;-92
2023/03/20 09:07:36;;;;;;;2.90;1.58;;;;;;;12.09;64.62;100116.66;6119320;23;20010;-92
2023/03/20 09:10:03;;;;;;;1.95;1.58;;;;;;;12.08;64.31;100109.56;6119855;23;20068;-92
2023/03/20 09:12:31;;;;;;;2.78;2.50;;;;;;;12.12;63.59;100104.66;6095777;23;20471;-92
2023/03/20 09:14:57;;;;;;;1.42;1.25;;;;;;;12.35;63.49;100125.00;6119908;23;20024;-89
2023/03/20 09:17:23;;;;;;;1.55;1.38;;;;;;;12.73;64.50;100147.97;6118970;23;20360;-90
2023/03/20 09:19:49;;;;;;;2.75;1.02;;;;;;;12.70;62.44;100121.03;6117234;23;20014;-90
2023/03/20 09:22:16;;;;;;;1.95;1.45;;;;;;;12.89;62.17;100106.06;6119455;23;20030;-90
2023/03/20 09:24:42;;;;;;;2.70;1.55;;;;;;;13.13;62.05;100142.66;6093594;23;20002;-90
2023/03/20 09:27:08;;;;;;;4.20;2.47;;;;;;;13.33;60.72;100128.41;6093311;23;20025;-90
2023/03/20 09:29:34;;;;;;;2.22;1.17;;;;;;;13.45;61.43;100131.13;6119206;23;20097;-89
2023/03/20 09:32:00;;;;;;;2.10;1.95;;;;;;;13.62;62.85;100145.63;6119440;23;20349;-90
2023/03/20 09:34:26;;;;;;;2.40;2.20;;;;;;;13.56;62.69;100136.28;6095140;23;20149;-90
2023/03/20 09:36:51;;;;;;;1.85;1.42;;;;;;;13.72;63.65;100144.44;6119922;23;20010;-90
2023/03/20 09:39:17;;;;;;;1.27;1.25;;;;;;;13.82;62.88;100146.06;6095063;23;20018;-90
2023/03/20 09:41:49;;;;;;;2.03;1.92;;;;;;;13.94;62.83;100144.41;6120464;23;20014;-90
2023/03/20 09:44:27;;;;;;;2.20;1.88;;;;;;;14.17;61.92;100152.25;6120675;23;20097;-92
2023/03/20 09:47:20;;;;;;;2.30;2.05;;;;;;;14.13;61.57;100134.09;6120538;23;20406;-91
2023/03/20 09:50:10;;;;;;;3.13;2.30;;;;;;;14.16;60.98;100142.31;6120941;23;20139;-90
2023/03/20 09:53:01;;;;;;;3.88;2.80;;;;;;;14.05;60.86;100141.97;6121312;23;20018;-91
2023/03/20 09:55:36;;;;;;;1.63;1.50;;;;;;;13.87;60.09;100137.09;6096805;23;20108;-90
2023/03/20 09:58:09;;;;;;;3.22;2.88;;;;;;;13.71;60.68;100140.09;6121505;23;20089;-90
2023/03/20 10:00:35;;;;;;;2.47;2.28;;;;;;;13.65;60.54;100133.56;6119016;23;20057;-90
2023/03/20 10:03:09;;;;;;;1.48;1.38;;;;;;;13.84;60.93;100140.78;6096785;23;20017;-90
2023/03/20 10:05:42;;;;;;;2.00;1.80;;;;;;;14.04;61.41;100126.47;6121327;23;20093;-91
2023/03/20 10:08:16;;;;;;;2.72;2.13;;;;;;;14.38;59.90;100122.75;6120746;23;20026;-91
2023/03/20 10:10:49;;;;;;;;;;;;;;;14.50;57.46;100146.19;6097924;23;20072;-91
2023/03/20 10:13:48;;;;;;;1.60;1.30;;;;;;;14.59;56.51;100140.66;6096934;23;19944;-91
2023/03/20 10:16:45;;;;;;;3.72;3.30;;;;;;;14.63;56.32;100138.47;6094864;23;20407;-90
2023/03/20 10:19:20;;;;;;;3.95;3.00;;;;;;;14.65;56.08;100147.16;6121033;23;20137;-90
2023/03/20 10:21:48;;;;;;;2.88;2.65;;;;;;;14.99;56.20;100135.75;6120859;23;20065;-90
2023/03/20 10:24:18;;;;;;;2.55;1.55;;;;;;;15.37;55.38;100135.25;6119926;23;20096;-90
2023/03/20 10:26:46;;;;;;;2.72;2.53;;;;;;;15.57;51.84;100138.34;6097615;23;20117;-90
2023/03/20 10:29:32;;;;;;;3.30;2.33;;;;;;;15.20;51.70;100126.44;6120681;23;20045;-90
2023/03/20 10:32:29;;;;;;;1.83;1.73;;;;;;;15.27;52.62;100133.72;6096222;23;20018;-90
2023/03/20 10:35:13;;;;;;;2.30;2.10;;;;;;;15.39;53.81;100133.56;6120556;23;20359;-90
2023/03/20 10:37:44;;;;;;;2.65;2.45;;;;;;;15.50;52.50;100121.13;6071774;23;20017;-90
2023/03/20 10:40:35;;;;;;;1.35;1.30;;;;;;;15.46;52.29;100131.66;6122830;23;20049;-90
2023/03/20 10:43:08;;;;;;;2.10;1.92;;;;;;;15.40;51.17;100128.75;6096503;23;20488;-91
2023/03/20 10:45:41;;;;;;;1.13;1.08;;;;;;;15.23;52.33;100105.16;6093318;23;20381;-90
2023/03/20 10:48:32;;;;;;;3.65;2.38;;;;;;;15.48;51.85;100132.00;6120988;23;20033;-91
2023/03/20 10:51:01;;;;;;;5.35;1.40;;;;;;;15.46;51.43;100115.66;6096095;23;20049;-90
2023/03/20 10:53:31;;;;;;;2.15;1.02;;;;;;;15.67;52.16;100114.72;6120643;23;20391;-90
2023/03/20 10:56:01;;;;;;;4.95;2.13;;;;;;;15.76;51.73;100116.72;6120753;23;20459;-90
2023/03/20 10:58:30;;;;;;;3.10;2.35;;;;;;;15.93;51.59;100109.53;6120277;23;20014;-90
2023/03/20 11:00:57;;;;;;;1.63;1.52;;;;;;;15.74;51.82;100075.25;6119937;23;20102;-90
2023/03/20 11:03:25;;;;;;;3.80;2.30;;;;;;;15.90;50.94;100088.09;6096395;23;20069;-90
2023/03/20 11:06:03;;;;;;;3.42;1.90;;;;;;;15.94;51.62;100074.69;6120887;23;20104;-91
2023/03/20 11:08:36;;;;;;;2.03;1.77;;;;;;;16.31;51.80;100103.28;6120465;23;20025;-90
2023/03/20 11:11:03;;;;;;;1.50;1.40;;;;;;;16.42;50.81;100099.97;6096348;23;20112;-90
2023/03/20 11:13:33;;;;;;;1.27;1.08;;;;;;;16.26;51.18;100081.53;6121339;23;20424;-88
2023/03/20 11:16:30;;;;;;;2.15;1.88;;;;;;;16.50;50.12;100096.31;6120390;23;20029;-90
2023/03/20 11:19:07;;;;;;;1.98;1.88;;;;;;;16.56;51.14;100060.81;6119731;23;20064;-90
2023/03/20 11:21:34;;;;;;;1.70;1.60;;;;;;;16.78;50.42;100049.34;6119968;23;20021;-90
2023/03/20 11:24:00;;;;;;;2.50;1.77;;;;;;;16.79;49.67;100057.25;6120594;23;20009;-90
2023/03/20 11:26:31;;;;;;;2.58;2.33;;;;;;;16.96;49.78;100084.81;6118185;23;20482;-89
2023/03/20 11:28:58;;;;;;;4.82;3.22;;;;;;;16.92;48.61;100081.44;6120672;23;20049;-90
2023/03/20 11:31:29;;;;;;;1.75;1.23;;;;;;;16.70;48.86;100043.31;6094241;23;20022;-89
2023/03/20 11:34:23;;;;;;;3.25;2.65;;;;;;;17.08;49.30;100075.38;6142040;23;20022;-89
2023/03/20 11:36:56;;;;;;;1.30;0.87;;;;;;;17.20;49.62;100083.53;6095845;23;20022;-89
2023/03/20 11:39:31;;;;;;;2.85;2.60;;;;;;;17.05;49.01;100076.34;6119621;23;20035;-90
2023/03/20 11:42:00;;;;;;;1.70;1.60;;;;;;;16.97;48.81;100078.75;6119726;23;20009;-90
2023/03/20 11:44:30;;;;;;;2.28;2.03;;;;;;;17.06;49.32;100075.09;6119666;23;20427;-90
2023/03/20 11:47:11;;;;;;;1.52;1.42;;;;;;;16.94;49.82;100068.50;6119736;23;20021;-90
2023/03/20 11:49:50;;;;;;;2.03;1.85;;;;;;;16.62;50.36;100070.13;6095319;23;20021;-90
2023/03/20 11:52:20;;;;;;;2.03;1.83;;;;;;;16.64;51.63;100062.03;6097201;23;20511;-90